sensor_id;sensor_type;location;lat;lon;timestamp;pressure;altitude;pressure_sealevel;temperature;humidity
12146;BME280;6136;47.032;15.398;2023-08-06T00:02:17;96381.88;;;15.52;nan
12146;BME280;6136;47.032;15.398;2023-08-06T00:04:45;96390.88;;;15.51;nan
12146;BME280;6136;47.032;15.398;2023-08-06T00:07:13;96374.84;;;15.51;nan
12146;BME280;6136;47.032;15.398;2023-08-06T00:09:41;96383.84;;;15.50;nan
12146;BME280;6136;47.032;15.398;2023-08-06T00:12:10;96375.69;;;15.51;nan
12146;BME280;6136;47.032;15.398;2023-08-06T00:14:39;96377.50;;;15.51;nan
12146;BME280;6136;47.032;15.398;2023-08-06T00:17:07;96371.81;;;15.46;nan
12146;BME280;6136;47.032;15.398;2023-08-06T00:19:35;96384.69;;;15.50;nan
12146;BME280;6136;47.032;15.398;2023-08-06T00:22:04;96383.00;;;15.49;nan
12146;BME280;6136;47.032;15.398;2023-08-06T00:24:33;96386.38;;;15.51;nan
12146;BME280;6136;47.032;15.398;2023-08-06T00:27:01;96390.88;;;15.51;nan
12146;BME280;6136;47.032;15.398;2023-08-06T00:29:29;96390.88;;;15.51;nan
12146;BME280;6136;47.032;15.398;2023-08-06T00:31:59;96380.19;;;15.51;nan
12146;BME280;6136;47.032;15.398;2023-08-06T00:34:27;96383.84;;;15.50;nan
12146;BME280;6136;47.032;15.398;2023-08-06T00:36:55;96385.84;;;15.48;nan
12146;BME280;6136;47.032;15.398;2023-08-06T00:39:23;96381.94;;;15.42;nan
12146;BME280;6136;47.032;15.398;2023-08-06T00:41:51;96387.69;;;15.47;nan
12146;BME280;6136;47.032;15.398;2023-08-06T00:44:20;96382.50;;;15.46;nan
12146;BME280;6136;47.032;15.398;2023-08-06T00:46:48;96383.34;;;15.46;nan
12146;BME280;6136;47.032;15.398;2023-08-06T00:49:18;96382.50;;;15.46;nan
12146;BME280;6136;47.032;15.398;2023-08-06T00:51:47;96374.63;;;15.44;nan
12146;BME280;6136;47.032;15.398;2023-08-06T00:54:15;96375.63;;;15.43;nan
12146;BME280;6136;47.032;15.398;2023-08-06T00:56:43;96373.78;;;15.44;nan
12146;BME280;6136;47.032;15.398;2023-08-06T00:59:12;96375.31;;;15.46;nan
12146;BME280;6136;47.032;15.398;2023-08-06T01:01:40;96377.16;;;15.46;nan
12146;BME280;6136;47.032;15.398;2023-08-06T01:04:08;96372.66;;;15.46;nan
12146;BME280;6136;47.032;15.398;2023-08-06T01:06:44;96364.78;;;15.45;nan
12146;BME280;6136;47.032;15.398;2023-08-06T01:09:27;96358.63;;;15.44;nan
12146;BME280;6136;47.032;15.398;2023-08-06T01:12:06;96349.75;;;15.44;nan
12146;BME280;6136;47.032;15.398;2023-08-06T01:14:46;96346.25;;;15.43;nan
12146;BME280;6136;47.032;15.398;2023-08-06T01:17:16;96343.59;;;15.43;nan
12146;BME280;6136;47.032;15.398;2023-08-06T01:19:45;96349.91;;;15.42;nan
12146;BME280;6136;47.032;15.398;2023-08-06T01:22:15;96351.59;;;15.43;nan
12146;BME280;6136;47.032;15.398;2023-08-06T01:24:47;96342.75;;;15.43;nan
12146;BME280;6136;47.032;15.398;2023-08-06T01:27:23;96337.72;;;15.40;nan
12146;BME280;6136;47.032;15.398;2023-08-06T01:29:58;96343.59;;;15.43;nan
12146;BME280;6136;47.032;15.398;2023-08-06T01:32:29;96346.25;;;15.43;nan
12146;BME280;6136;47.032;15.398;2023-08-06T01:35:00;96348.78;;;15.45;nan
12146;BME280;6136;47.032;15.398;2023-08-06T01:37:31;96341.75;;;15.44;nan
12146;BME280;6136;47.032;15.398;2023-08-06T01:40:06;96337.72;;;15.40;nan
12146;BME280;6136;47.032;15.398;2023-08-06T01:42:34;96343.72;;;15.42;nan
12146;BME280;6136;47.032;15.398;2023-08-06T01:45:03;96355.44;;;15.41;nan
12146;BME280;6136;47.032;15.398;2023-08-06T01:47:32;96343.72;;;15.42;nan
12146;BME280;6136;47.032;15.398;2023-08-06T01:50:00;96340.00;;;15.35;nan
12146;BME280;6136;47.032;15.398;2023-08-06T01:52:28;96342.38;;;15.38;nan
12146;BME280;6136;47.032;15.398;2023-08-06T01:54:59;96338.88;;;15.37;nan
12146;BME280;6136;47.032;15.398;2023-08-06T01:57:27;96327.50;;;15.35;nan
12146;BME280;6136;47.032;15.398;2023-08-06T01:59:55;96321.66;;;15.32;nan
12146;BME280;6136;47.032;15.398;2023-08-06T02:02:24;96320.97;;;15.30;nan
12146;BME280;6136;47.032;15.398;2023-08-06T02:04:52;96307.09;;;15.26;nan
12146;BME280;6136;47.032;15.398;2023-08-06T02:07:20;96323.34;;;15.33;nan
12146;BME280;6136;47.032;15.398;2023-08-06T02:09:48;96321.66;;;15.32;nan
12146;BME280;6136;47.032;15.398;2023-08-06T02:12:17;96323.47;;;15.31;nan
12146;BME280;6136;47.032;15.398;2023-08-06T02:14:45;96325.00;;;15.34;nan
12146;BME280;6136;47.032;15.398;2023-08-06T02:17:13;96311.66;;;15.34;nan
12146;BME280;6136;47.032;15.398;2023-08-06T02:19:41;96306.34;;;15.34;nan
12146;BME280;6136;47.032;15.398;2023-08-06T02:22:10;96310.97;;;15.32;nan
12146;BME280;6136;47.032;15.398;2023-08-06T02:24:38;96312.94;;;15.30;nan
12146;BME280;6136;47.032;15.398;2023-08-06T02:27:06;96304.25;;;15.28;nan
12146;BME280;6136;47.032;15.398;2023-08-06T02:29:36;96309.59;;;15.28;nan
12146;BME280;6136;47.032;15.398;2023-08-06T02:32:05;96308.94;;;15.26;nan
12146;BME280;6136;47.032;15.398;2023-08-06T02:34:33;96309.78;;;15.26;nan
12146;BME280;6136;47.032;15.398;2023-08-06T02:37:01;96309.91;;;15.25;nan
12146;BME280;6136;47.032;15.398;2023-08-06T02:39:29;96305.41;;;15.25;nan
12146;BME280;6136;47.032;15.398;2023-08-06T02:41:57;96305.56;;;15.24;nan
12146;BME280;6136;47.032;15.398;2023-08-06T02:44:27;96306.00;;;15.19;nan
12146;BME280;6136;47.032;15.398;2023-08-06T02:46:56;96314.19;;;15.18;nan
12146;BME280;6136;47.032;15.398;2023-08-06T02:49:25;96317.03;;;15.16;nan
12146;BME280;6136;47.032;15.398;2023-08-06T02:51:53;96309.16;;;15.14;nan
12146;BME280;6136;47.032;15.398;2023-08-06T02:54:21;96305.66;;;15.14;nan
12146;BME280;6136;47.032;15.398;2023-08-06T02:56:49;96314.66;;;15.13;nan
12146;BME280;6136;47.032;15.398;2023-08-06T02:59:23;96324.19;;;15.15;nan
12146;BME280;6136;47.032;15.398;2023-08-06T03:02:07;96309.50;;;15.11;nan
12146;BME280;6136;47.032;15.398;2023-08-06T03:04:44;96319.13;;;15.12;nan
12146;BME280;6136;47.032;15.398;2023-08-06T03:07:13;96320.44;;;15.08;nan
12146;BME280;6136;47.032;15.398;2023-08-06T03:09:50;96308.78;;;15.09;nan
12146;BME280;6136;47.032;15.398;2023-08-06T03:12:19;96312.16;;;15.11;nan
12146;BME280;6136;47.032;15.398;2023-08-06T03:14:48;96307.81;;;15.10;nan
12146;BME280;6136;47.032;15.398;2023-08-06T03:17:18;96313.16;;;15.10;nan
12146;BME280;6136;47.032;15.398;2023-08-06T03:19:47;96299.09;;;15.08;nan
12146;BME280;6136;47.032;15.398;2023-08-06T03:22:17;96312.31;;;15.10;nan
12146;BME280;6136;47.032;15.398;2023-08-06T03:24:45;96313.28;;;15.09;nan
12146;BME280;6136;47.032;15.398;2023-08-06T03:27:14;96306.28;;;15.08;nan
12146;BME280;6136;47.032;15.398;2023-08-06T03:29:42;96306.41;;;15.06;nan
12146;BME280;6136;47.032;15.398;2023-08-06T03:32:11;96308.41;;;15.04;nan
12146;BME280;6136;47.032;15.398;2023-08-06T03:34:41;96310.91;;;15.06;nan
12146;BME280;6136;47.032;15.398;2023-08-06T03:37:10;96299.72;;;15.02;nan
12146;BME280;6136;47.032;15.398;2023-08-06T03:39:39;96308.41;;;15.04;nan
12146;BME280;6136;47.032;15.398;2023-08-06T03:42:08;96308.41;;;15.04;nan
12146;BME280;6136;47.032;15.398;2023-08-06T03:44:36;96305.91;;;15.03;nan
12146;BME280;6136;47.032;15.398;2023-08-06T03:47:06;96313.72;;;15.04;nan
12146;BME280;6136;47.032;15.398;2023-08-06T03:49:35;96299.59;;;15.04;nan
12146;BME280;6136;47.032;15.398;2023-08-06T03:52:06;96297.72;;;15.04;nan
12146;BME280;6136;47.032;15.398;2023-08-06T03:54:34;96291.56;;;15.04;nan
12146;BME280;6136;47.032;15.398;2023-08-06T03:57:03;96294.41;;;15.02;nan
12146;BME280;6136;47.032;15.398;2023-08-06T03:59:31;96306.06;;;15.01;nan
12146;BME280;6136;47.032;15.398;2023-08-06T04:02:00;96305.06;;;15.02;nan
12146;BME280;6136;47.032;15.398;2023-08-06T04:04:28;96294.41;;;15.02;nan
12146;BME280;6136;47.032;15.398;2023-08-06T04:06:56;96294.69;;;14.99;nan
12146;BME280;6136;47.032;15.398;2023-08-06T04:09:28;96299.03;;;15.00;nan
12146;BME280;6136;47.032;15.398;2023-08-06T04:11:56;96293.84;;;14.99;nan
12146;BME280;6136;47.032;15.398;2023-08-06T04:14:26;96293.00;;;14.98;nan
12146;BME280;6136;47.032;15.398;2023-08-06T04:16:56;96284.09;;;14.90;nan
12146;BME280;6136;47.032;15.398;2023-08-06T04:19:24;96280.44;;;14.91;nan
12146;BME280;6136;47.032;15.398;2023-08-06T04:21:52;96288.38;;;14.83;nan
12146;BME280;6136;47.032;15.398;2023-08-06T04:24:21;96288.06;;;14.86;nan
12146;BME280;6136;47.032;15.398;2023-08-06T04:26:50;96282.97;;;14.92;nan
12146;BME280;6136;47.032;15.398;2023-08-06T04:29:18;96288.00;;;14.95;nan
12146;BME280;6136;47.032;15.398;2023-08-06T04:31:46;96282.66;;;14.95;nan
12146;BME280;6136;47.032;15.398;2023-08-06T04:34:15;96292.50;;;14.95;nan
12146;BME280;6136;47.032;15.398;2023-08-06T04:36:43;96291.31;;;14.97;nan
12146;BME280;6136;47.032;15.398;2023-08-06T04:39:12;96296.50;;;14.99;nan
12146;BME280;6136;47.032;15.398;2023-08-06T04:41:40;96293.56;;;15.02;nan
12146;BME280;6136;47.032;15.398;2023-08-06T04:44:10;96291.56;;;15.04;nan
12146;BME280;6136;47.032;15.398;2023-08-06T04:46:38;96300.56;;;15.03;nan
12146;BME280;6136;47.032;15.398;2023-08-06T04:49:06;96308.09;;;15.07;nan
12146;BME280;6136;47.032;15.398;2023-08-06T04:51:34;96318.78;;;15.07;nan
12146;BME280;6136;47.032;15.398;2023-08-06T04:54:02;96321.81;;;15.12;nan
12146;BME280;6136;47.032;15.398;2023-08-06T04:56:30;96334.16;;;15.13;nan
12146;BME280;6136;47.032;15.398;2023-08-06T04:58:59;96342.84;;;15.15;nan
12146;BME280;6136;47.032;15.398;2023-08-06T05:01:28;96345.22;;;15.19;nan
12146;BME280;6136;47.032;15.398;2023-08-06T05:03:57;96347.91;;;15.19;nan
12146;BME280;6136;47.032;15.398;2023-08-06T05:06:25;96349.56;;;15.20;nan
12146;BME280;6136;47.032;15.398;2023-08-06T05:08:53;96355.59;;;15.22;nan
12146;BME280;6136;47.032;15.398;2023-08-06T05:11:21;96358.41;;;15.20;nan
12146;BME280;6136;47.032;15.398;2023-08-06T05:13:50;96359.09;;;15.22;nan
12146;BME280;6136;47.032;15.398;2023-08-06T05:16:18;96354.88;;;15.20;nan
12146;BME280;6136;47.032;15.398;2023-08-06T05:18:48;96359.25;;;15.21;nan
12146;BME280;6136;47.032;15.398;2023-08-06T05:21:16;96364.72;;;15.19;nan
12146;BME280;6136;47.032;15.398;2023-08-06T05:23:44;96361.91;;;15.21;nan
12146;BME280;6136;47.032;15.398;2023-08-06T05:26:12;96369.63;;;15.24;nan
12146;BME280;6136;47.032;15.398;2023-08-06T05:28:42;96360.06;;;15.21;nan
12146;BME280;6136;47.032;15.398;2023-08-06T05:31:10;96366.63;;;15.27;nan
12146;BME280;6136;47.032;15.398;2023-08-06T05:33:38;96363.81;;;15.28;nan
12146;BME280;6136;47.032;15.398;2023-08-06T05:36:08;96370.97;;;15.28;nan
12146;BME280;6136;47.032;15.398;2023-08-06T05:38:36;96368.31;;;15.28;nan
12146;BME280;6136;47.032;15.398;2023-08-06T05:41:04;96378.69;;;15.31;nan
12146;BME280;6136;47.032;15.398;2023-08-06T05:43:32;96365.72;;;15.36;nan
12146;BME280;6136;47.032;15.398;2023-08-06T05:46:01;96366.09;;;15.41;nan
12146;BME280;6136;47.032;15.398;2023-08-06T05:48:29;96367.41;;;15.37;nan
12146;BME280;6136;47.032;15.398;2023-08-06T05:50:57;96358.41;;;15.38;nan
12146;BME280;6136;47.032;15.398;2023-08-06T05:53:27;96361.97;;;15.46;nan
12146;BME280;6136;47.032;15.398;2023-08-06T05:55:55;96360.16;;;15.47;nan
12146;BME280;6136;47.032;15.398;2023-08-06T05:58:23;96366.47;;;15.46;nan
12146;BME280;6136;47.032;15.398;2023-08-06T06:00:55;96370.44;;;15.42;nan
12146;BME280;6136;47.032;15.398;2023-08-06T06:03:23;96368.44;;;15.44;nan
12146;BME280;6136;47.032;15.398;2023-08-06T06:05:51;96362.13;;;15.45;nan
12146;BME280;6136;47.032;15.398;2023-08-06T06:08:19;96369.66;;;15.49;nan
12146;BME280;6136;47.032;15.398;2023-08-06T06:10:49;96374.00;;;15.50;nan
12146;BME280;6136;47.032;15.398;2023-08-06T06:13:17;96382.84;;;15.51;nan
12146;BME280;6136;47.032;15.398;2023-08-06T06:15:46;96376.25;;;15.55;nan
12146;BME280;6136;47.032;15.398;2023-08-06T06:18:15;96377.47;;;15.61;nan
12146;BME280;6136;47.032;15.398;2023-08-06T06:20:44;96383.50;;;15.63;nan
12146;BME280;6136;47.032;15.398;2023-08-06T06:23:12;96377.75;;;15.75;nan
12146;BME280;6136;47.032;15.398;2023-08-06T06:25:42;96382.16;;;15.84;nan
12146;BME280;6136;47.032;15.398;2023-08-06T06:28:12;96383.06;;;15.93;nan
12146;BME280;6136;47.032;15.398;2023-08-06T06:30:42;96385.59;;;16.03;nan
12146;BME280;6136;47.032;15.398;2023-08-06T06:33:10;96384.53;;;15.96;nan
12146;BME280;6136;47.032;15.398;2023-08-06T06:35:38;96384.13;;;16.08;nan
12146;BME280;6136;47.032;15.398;2023-08-06T06:38:06;96389.06;;;16.21;nan
12146;BME280;6136;47.032;15.398;2023-08-06T06:40:35;96375.31;;;16.16;nan
12146;BME280;6136;47.032;15.398;2023-08-06T06:43:04;96390.09;;;16.28;nan
12146;BME280;6136;47.032;15.398;2023-08-06T06:45:35;96386.09;;;16.32;nan
12146;BME280;6136;47.032;15.398;2023-08-06T06:48:04;96386.44;;;16.29;nan
12146;BME280;6136;47.032;15.398;2023-08-06T06:50:35;96392.63;;;16.29;nan
12146;BME280;6136;47.032;15.398;2023-08-06T06:53:06;96387.78;;;16.33;nan
12146;BME280;6136;47.032;15.398;2023-08-06T06:55:34;96392.47;;;16.39;nan
12146;BME280;6136;47.032;15.398;2023-08-06T06:58:02;96390.59;;;16.31;nan
12146;BME280;6136;47.032;15.398;2023-08-06T07:00:36;96394.84;;;16.42;nan
12146;BME280;6136;47.032;15.398;2023-08-06T07:03:04;96391.69;;;16.47;nan
12146;BME280;6136;47.032;15.398;2023-08-06T07:05:33;96389.84;;;16.47;nan
12146;BME280;6136;47.032;15.398;2023-08-06T07:08:02;96390.88;;;16.54;nan
12146;BME280;6136;47.032;15.398;2023-08-06T07:10:30;96393.19;;;16.49;nan
12146;BME280;6136;47.032;15.398;2023-08-06T07:12:58;96389.03;;;16.55;nan
12146;BME280;6136;47.032;15.398;2023-08-06T07:15:27;96386.22;;;16.56;nan
12146;BME280;6136;47.032;15.398;2023-08-06T07:17:56;96383.06;;;16.61;nan
12146;BME280;6136;47.032;15.398;2023-08-06T07:20:24;96384.38;;;16.57;nan
12146;BME280;6136;47.032;15.398;2023-08-06T07:22:52;96383.00;;;16.53;nan
12146;BME280;6136;47.032;15.398;2023-08-06T07:25:21;96384.53;;;16.55;nan
12146;BME280;6136;47.032;15.398;2023-08-06T07:27:49;96372.53;;;16.59;nan
12146;BME280;6136;47.032;15.398;2023-08-06T07:30:17;96378.34;;;16.55;nan
12146;BME280;6136;47.032;15.398;2023-08-06T07:32:45;96380.16;;;16.54;nan
12146;BME280;6136;47.032;15.398;2023-08-06T07:35:15;96378.69;;;16.60;nan
12146;BME280;6136;47.032;15.398;2023-08-06T07:37:43;96370.38;;;16.63;nan
12146;BME280;6136;47.032;15.398;2023-08-06T07:40:11;96370.53;;;16.61;nan
12146;BME280;6136;47.032;15.398;2023-08-06T07:42:40;96371.91;;;16.65;nan
12146;BME280;6136;47.032;15.398;2023-08-06T07:45:09;96373.94;;;16.72;nan
12146;BME280;6136;47.032;15.398;2023-08-06T07:47:37;96373.13;;;16.79;nan
12146;BME280;6136;47.032;15.398;2023-08-06T07:50:07;96366.59;;;16.90;nan
12146;BME280;6136;47.032;15.398;2023-08-06T07:52:37;96367.81;;;16.95;nan
12146;BME280;6136;47.032;15.398;2023-08-06T07:55:06;96367.81;;;16.95;nan
12146;BME280;6136;47.032;15.398;2023-08-06T07:57:34;96365.94;;;16.88;nan
12146;BME280;6136;47.032;15.398;2023-08-06T08:00:03;96366.59;;;16.90;nan
12146;BME280;6136;47.032;15.398;2023-08-06T08:02:38;96362.28;;;16.97;nan
12146;BME280;6136;47.032;15.398;2023-08-06T08:05:06;96357.28;;;17.02;nan
12146;BME280;6136;47.032;15.398;2023-08-06T08:07:36;96365.81;;;17.05;nan
12146;BME280;6136;47.032;15.398;2023-08-06T08:10:06;96374.22;;;17.19;nan
12146;BME280;6136;47.032;15.398;2023-08-06T08:12:34;96360.31;;;17.23;nan
12146;BME280;6136;47.032;15.398;2023-08-06T08:15:03;96365.69;;;17.23;nan
12146;BME280;6136;47.032;15.398;2023-08-06T08:17:31;96368.19;;;17.33;nan
12146;BME280;6136;47.032;15.398;2023-08-06T08:19:59;96366.69;;;17.38;nan
12146;BME280;6136;47.032;15.398;2023-08-06T08:22:27;96374.06;;;17.44;nan
12146;BME280;6136;47.032;15.398;2023-08-06T08:24:57;96371.22;;;17.46;nan
12146;BME280;6136;47.032;15.398;2023-08-06T08:27:25;96371.69;;;17.41;nan
12146;BME280;6136;47.032;15.398;2023-08-06T08:29:53;96369.00;;;17.41;nan
12146;BME280;6136;47.032;15.398;2023-08-06T08:32:21;96374.72;;;17.46;nan
12146;BME280;6136;47.032;15.398;2023-08-06T08:34:49;96376.06;;;17.59;nan
12146;BME280;6136;47.032;15.398;2023-08-06T08:37:18;96375.59;;;17.63;nan
12146;BME280;6136;47.032;15.398;2023-08-06T08:39:46;96384.78;;;17.61;nan
12146;BME280;6136;47.032;15.398;2023-08-06T08:42:16;96387.78;;;17.58;nan
12146;BME280;6136;47.032;15.398;2023-08-06T08:44:45;96388.97;;;17.55;nan
12146;BME280;6136;47.032;15.398;2023-08-06T08:47:13;96387.31;;;17.62;nan
12146;BME280;6136;47.032;15.398;2023-08-06T08:49:43;96387.31;;;17.62;nan
12146;BME280;6136;47.032;15.398;2023-08-06T08:52:15;96393.69;;;17.69;nan
12146;BME280;6136;47.032;15.398;2023-08-06T08:54:45;96392.16;;;17.75;nan
12146;BME280;6136;47.032;15.398;2023-08-06T08:57:20;96398.84;;;17.79;nan
12146;BME280;6136;47.032;15.398;2023-08-06T08:59:48;96393.31;;;17.80;nan
12146;BME280;6136;47.032;15.398;2023-08-06T09:02:18;96400.38;;;17.90;nan
12146;BME280;6136;47.032;15.398;2023-08-06T09:04:48;96402.88;;;17.91;nan
12146;BME280;6136;47.032;15.398;2023-08-06T09:07:18;96395.16;;;17.96;nan
12146;BME280;6136;47.032;15.398;2023-08-06T09:09:49;96394.84;;;17.99;nan
12146;BME280;6136;47.032;15.398;2023-08-06T09:12:19;96400.19;;;18.07;nan
12146;BME280;6136;47.032;15.398;2023-08-06T09:14:47;96401.50;;;18.03;nan
12146;BME280;6136;47.032;15.398;2023-08-06T09:17:15;96407.22;;;18.00;nan
12146;BME280;6136;47.032;15.398;2023-08-06T09:19:47;96411.59;;;17.93;nan
12146;BME280;6136;47.032;15.398;2023-08-06T09:22:16;96406.56;;;17.90;nan
12146;BME280;6136;47.032;15.398;2023-08-06T09:24:44;96409.25;;;17.90;nan
12146;BME280;6136;47.032;15.398;2023-08-06T09:27:13;96408.25;;;17.99;nan
12146;BME280;6136;47.032;15.398;2023-08-06T09:29:44;96411.41;;;18.03;nan
12146;BME280;6136;47.032;15.398;2023-08-06T09:32:12;96409.53;;;18.11;nan
12146;BME280;6136;47.032;15.398;2023-08-06T09:34:42;96419.94;;;18.14;nan
12146;BME280;6136;47.032;15.398;2023-08-06T09:37:10;96423.13;;;18.10;nan
12146;BME280;6136;47.032;15.398;2023-08-06T09:39:39;96430.00;;;18.12;nan
12146;BME280;6136;47.032;15.398;2023-08-06T09:42:08;96431.66;;;18.21;nan
12146;BME280;6136;47.032;15.398;2023-08-06T09:44:38;96422.63;;;18.22;nan
12146;BME280;6136;47.032;15.398;2023-08-06T09:47:09;96421.59;;;18.23;nan
12146;BME280;6136;47.032;15.398;2023-08-06T09:49:41;96428.47;;;18.26;nan
12146;BME280;6136;47.032;15.398;2023-08-06T09:52:13;96437.66;;;18.32;nan
12146;BME280;6136;47.032;15.398;2023-08-06T09:54:43;96422.56;;;18.39;nan
12146;BME280;6136;47.032;15.398;2023-08-06T09:57:14;96430.94;;;18.52;nan
12146;BME280;6136;47.032;15.398;2023-08-06T09:59:42;96429.44;;;18.33;nan
12146;BME280;6136;47.032;15.398;2023-08-06T10:02:13;96428.25;;;18.52;nan
12146;BME280;6136;47.032;15.398;2023-08-06T10:04:44;96429.25;;;18.59;nan
12146;BME280;6136;47.032;15.398;2023-08-06T10:07:21;96430.84;;;19.15;nan
12146;BME280;6136;47.032;15.398;2023-08-06T10:09:50;96424.78;;;19.75;nan
12146;BME280;6136;47.032;15.398;2023-08-06T10:12:20;96433.28;;;20.53;nan
12146;BME280;6136;47.032;15.398;2023-08-06T10:14:49;96435.66;;;21.37;nan
12146;BME280;6136;47.032;15.398;2023-08-06T10:17:20;96432.75;;;21.95;nan
12146;BME280;6136;47.032;15.398;2023-08-06T10:19:51;96443.47;;;22.59;nan
12146;BME280;6136;47.032;15.398;2023-08-06T10:22:21;96441.72;;;23.14;nan
12146;BME280;6136;47.032;15.398;2023-08-06T10:24:52;96437.81;;;23.30;nan
12146;BME280;6136;47.032;15.398;2023-08-06T10:27:27;96445.59;;;22.98;nan
12146;BME280;6136;47.032;15.398;2023-08-06T10:29:56;96448.53;;;23.03;nan
12146;BME280;6136;47.032;15.398;2023-08-06T10:32:49;96441.25;;;23.04;nan
12146;BME280;6136;47.032;15.398;2023-08-06T10:35:37;96449.28;;;23.32;nan
12146;BME280;6136;47.032;15.398;2023-08-06T10:38:08;96433.28;;;24.57;nan
12146;BME280;6136;47.032;15.398;2023-08-06T10:40:37;96439.31;;;24.32;nan
12146;BME280;6136;47.032;15.398;2023-08-06T10:43:07;96436.16;;;24.88;nan
12146;BME280;6136;47.032;15.398;2023-08-06T10:45:37;96435.22;;;25.21;nan
12146;BME280;6136;47.032;15.398;2023-08-06T10:48:08;96438.59;;;25.09;nan
12146;BME280;6136;47.032;15.398;2023-08-06T10:50:36;96436.81;;;25.35;nan
12146;BME280;6136;47.032;15.398;2023-08-06T10:53:05;96435.28;;;25.97;nan
12146;BME280;6136;47.032;15.398;2023-08-06T10:55:35;96431.16;;;25.87;nan
12146;BME280;6136;47.032;15.398;2023-08-06T10:58:05;96442.81;;;25.63;nan
12146;BME280;6136;47.032;15.398;2023-08-06T11:00:35;96433.84;;;26.19;nan
12146;BME280;6136;47.032;15.398;2023-08-06T11:03:08;96431.16;;;26.93;nan
12146;BME280;6136;47.032;15.398;2023-08-06T11:05:38;96428.63;;;25.93;nan
12146;BME280;6136;47.032;15.398;2023-08-06T11:08:07;96439.44;;;26.24;nan
12146;BME280;6136;47.032;15.398;2023-08-06T11:10:36;96432.66;;;26.64;nan
12146;BME280;6136;47.032;15.398;2023-08-06T11:13:11;96419.38;;;27.18;nan
12146;BME280;6136;47.032;15.398;2023-08-06T11:15:40;96430.25;;;26.00;nan
12146;BME280;6136;47.032;15.398;2023-08-06T11:18:10;96437.81;;;25.02;nan
12146;BME280;6136;47.032;15.398;2023-08-06T11:20:40;96434.47;;;24.94;nan
12146;BME280;6136;47.032;15.398;2023-08-06T11:23:10;96440.97;;;25.44;nan
12146;BME280;6136;47.032;15.398;2023-08-06T11:25:47;96433.03;;;26.93;nan
12146;BME280;6136;47.032;15.398;2023-08-06T11:28:16;96422.25;;;28.31;nan
12146;BME280;6136;47.032;15.398;2023-08-06T11:30:50;96425.78;;;27.23;nan
12146;BME280;6136;47.032;15.398;2023-08-06T11:33:24;96425.19;;;27.03;nan
12146;BME280;6136;47.032;15.398;2023-08-06T11:35:55;96413.47;;;28.29;nan
12146;BME280;6136;47.032;15.398;2023-08-06T11:38:25;96406.97;;;28.65;nan
12146;BME280;6136;47.032;15.398;2023-08-06T11:40:55;96396.97;;;29.68;nan
12146;BME280;6136;47.032;15.398;2023-08-06T11:43:30;96396.59;;;29.25;nan
12146;BME280;6136;47.032;15.398;2023-08-06T11:46:00;96402.28;;;30.20;nan
12146;BME280;6136;47.032;15.398;2023-08-06T11:48:30;96399.81;;;30.19;nan
12146;BME280;6136;47.032;15.398;2023-08-06T11:50:59;96397.00;;;30.30;nan
12146;BME280;6136;47.032;15.398;2023-08-06T11:53:33;96397.53;;;31.16;nan
12146;BME280;6136;47.032;15.398;2023-08-06T11:56:41;96394.28;;;31.41;nan
12146;BME280;6136;47.032;15.398;2023-08-06T12:00:08;96400.44;;;29.12;nan
12146;BME280;6136;47.032;15.398;2023-08-06T12:06:41;96402.22;;;26.99;nan
12146;BME280;6136;47.032;15.398;2023-08-06T12:10:04;96405.06;;;26.67;nan
12146;BME280;6136;47.032;15.398;2023-08-06T12:13:31;96402.91;;;26.26;nan
12146;BME280;6136;47.032;15.398;2023-08-06T12:16:29;96398.56;;;25.87;nan
12146;BME280;6136;47.032;15.398;2023-08-06T12:23:06;96401.94;;;26.14;nan
12146;BME280;6136;47.032;15.398;2023-08-06T12:30:30;96411.84;;;25.26;nan
12146;BME280;6136;47.032;15.398;2023-08-06T12:37:18;96415.56;;;24.08;nan
12146;BME280;6136;47.032;15.398;2023-08-06T12:40:31;96419.28;;;23.87;nan
12146;BME280;6136;47.032;15.398;2023-08-06T12:43:43;96434.44;;;23.55;nan
12146;BME280;6136;47.032;15.398;2023-08-06T12:46:57;96432.50;;;23.49;nan
12146;BME280;6136;47.032;15.398;2023-08-06T12:49:50;96430.16;;;23.33;nan
12146;BME280;6136;47.032;15.398;2023-08-06T12:52:42;96432.94;;;23.05;nan
12146;BME280;6136;47.032;15.398;2023-08-06T12:55:10;96434.94;;;23.38;nan
12146;BME280;6136;47.032;15.398;2023-08-06T12:57:40;96437.56;;;23.79;nan
12146;BME280;6136;47.032;15.398;2023-08-06T13:00:24;96439.88;;;23.88;nan
12146;BME280;6136;47.032;15.398;2023-08-06T13:02:53;96444.28;;;24.03;nan
12146;BME280;6136;47.032;15.398;2023-08-06T13:05:23;96437.03;;;24.43;nan
12146;BME280;6136;47.032;15.398;2023-08-06T13:07:53;96438.66;;;24.90;nan
12146;BME280;6136;47.032;15.398;2023-08-06T13:10:23;96437.34;;;25.05;nan
12146;BME280;6136;47.032;15.398;2023-08-06T13:12:53;96447.78;;;25.08;nan
12146;BME280;6136;47.032;15.398;2023-08-06T13:15:22;96442.41;;;24.69;nan
12146;BME280;6136;47.032;15.398;2023-08-06T13:17:52;96451.50;;;25.21;nan
12146;BME280;6136;47.032;15.398;2023-08-06T13:20:21;96444.50;;;24.93;nan
12146;BME280;6136;47.032;15.398;2023-08-06T13:22:50;96447.84;;;24.82;nan
12146;BME280;6136;47.032;15.398;2023-08-06T13:25:21;96443.22;;;25.02;nan
12146;BME280;6136;47.032;15.398;2023-08-06T13:27:50;96441.91;;;25.18;nan
12146;BME280;6136;47.032;15.398;2023-08-06T13:30:21;96421.34;;;25.42;nan
12146;BME280;6136;47.032;15.398;2023-08-06T13:32:50;96424.22;;;25.53;nan
12146;BME280;6136;47.032;15.398;2023-08-06T13:35:19;96425.97;;;25.79;nan
12146;BME280;6136;47.032;15.398;2023-08-06T13:37:49;96427.53;;;25.69;nan
12146;BME280;6136;47.032;15.398;2023-08-06T13:40:17;96426.25;;;25.27;nan
12146;BME280;6136;47.032;15.398;2023-08-06T13:42:47;96426.09;;;25.08;nan
12146;BME280;6136;47.032;15.398;2023-08-06T13:45:15;96417.28;;;25.20;nan
12146;BME280;6136;47.032;15.398;2023-08-06T13:47:46;96420.84;;;25.13;nan
12146;BME280;6136;47.032;15.398;2023-08-06T13:50:15;96423.16;;;25.17;nan
12146;BME280;6136;47.032;15.398;2023-08-06T13:53:01;96425.81;;;25.30;nan
12146;BME280;6136;47.032;15.398;2023-08-06T13:55:30;96427.31;;;25.12;nan
12146;BME280;6136;47.032;15.398;2023-08-06T13:57:59;96416.94;;;25.03;nan
12146;BME280;6136;47.032;15.398;2023-08-06T14:00:27;96425.22;;;25.14;nan